Time,TemperatureF,DewpointF,PressureIn,WindDirection,WindDirectionDegrees,WindSpeedMPH,WindSpeedGustMPH,Humidity,HourlyPrecipIn,Conditions,Clouds,dailyrainin,SoftwareType,DateUTC
2013-03-07 00:07:00,26.7,21.0,30.35,SE,133,0.0,-999.0,79,-99.99,,,0.01,weatherlink.com 1.10,2013-03-07 06:07:00,
2013-03-07 00:22:00,26.0,20.0,30.35,SE,133,0.0,-999.0,79,-99.99,,,0.01,weatherlink.com 1.10,2013-03-07 06:22:00,
2013-03-07 00:37:00,25.4,20.0,30.36,SE,133,0.0,-999.0,79,-99.99,,,0.01,weatherlink.com 1.10,2013-03-07 06:37:00,
2013-03-07 00:52:00,24.9,19.0,30.37,SE,133,0.0,-999.0,79,-99.99,,,0.01,weatherlink.com 1.10,2013-03-07 06:52:00,
2013-03-07 01:07:00,24.4,19.0,30.38,SE,133,0.0,-999.0,79,-99.99,,,0.00,weatherlink.com 1.10,2013-03-07 07:07:00,
2013-03-07 01:22:00,23.8,19.0,30.38,SE,133,0.0,-999.0,80,-99.99,,,0.00,weatherlink.com 1.10,2013-03-07 07:22:00,
2013-03-07 01:37:00,23.3,18.0,30.38,SE,133,0.0,-999.0,80,-99.99,,,0.00,weatherlink.com 1.10,2013-03-07 07:37:00,
2013-03-07 01:52:00,22.8,18.0,30.38,SE,133,0.0,-999.0,81,-99.99,,,0.00,weatherlink.com 1.10,2013-03-07 07:52:00,
2013-03-07 02:07:00,22.1,18.0,30.39,SE,133,0.0,-999.0,83,-99.99,,,0.00,weatherlink.com 1.10,2013-03-07 08:07:00,
2013-03-07 02:22:00,21.0,17.0,30.38,SE,133,0.0,-999.0,84,-99.99,,,0.00,weatherlink.com 1.10,2013-03-07 08:22:00,
2013-03-07 02:37:00,20.3,17.0,30.39,SE,133,0.0,-999.0,86,-99.99,,,0.00,weatherlink.com 1.10,2013-03-07 08:37:00,
2013-03-07 02:52:00,19.8,16.0,30.39,SE,133,0.0,-999.0,86,-99.99,,,0.00,weatherlink.com 1.10,2013-03-07 08:52:00,
2013-03-07 03:07:00,19.3,16.0,30.39,SE,133,0.0,-999.0,86,-99.99,,,0.00,weatherlink.com 1.10,2013-03-07 09:07:00,
2013-03-07 03:22:00,18.6,15.0,30.38,SE,133,0.0,-999.0,87,-99.99,,,0.00,weatherlink.com 1.10,2013-03-07 09:22:00,
2013-03-07 03:37:00,18.0,15.0,30.38,SE,133,0.0,-999.0,87,-99.99,,,0.00,weatherlink.com 1.10,2013-03-07 09:37:00,
2013-03-07 03:52:00,17.5,14.0,30.38,SE,133,0.0,-999.0,87,-99.99,,,0.00,weatherlink.com 1.10,2013-03-07 09:52:00,
2013-03-07 04:07:00,17.1,14.0,30.38,SE,133,0.0,-999.0,88,-99.99,,,0.00,weatherlink.com 1.10,2013-03-07 10:07:00,
2013-03-07 04:22:00,16.5,14.0,30.38,SE,133,0.0,-999.0,88,-99.99,,,0.00,weatherlink.com 1.10,2013-03-07 10:22:00,
2013-03-07 04:37:00,16.2,14.0,30.39,SE,133,0.0,-999.0,89,-99.99,,,0.00,weatherlink.com 1.10,2013-03-07 10:37:00,
2013-03-07 04:52:00,15.8,13.0,30.39,SE,133,0.0,-999.0,88,-99.99,,,0.00,weatherlink.com 1.10,2013-03-07 10:52:00,
2013-03-07 05:07:00,15.5,13.0,30.40,SE,133,0.0,-999.0,89,-99.99,,,0.00,weatherlink.com 1.10,2013-03-07 11:07:00,
2013-03-07 05:22:00,15.3,13.0,30.40,SE,133,0.0,-999.0,89,-99.99,,,0.00,weatherlink.com 1.10,2013-03-07 11:22:00,
2013-03-07 05:37:00,15.0,13.0,30.40,SE,133,0.0,-999.0,90,-99.99,,,0.00,weatherlink.com 1.10,2013-03-07 11:37:00,
2013-03-07 05:52:00,14.7,12.0,30.40,SE,133,0.0,-999.0,90,-99.99,,,0.00,weatherlink.com 1.10,2013-03-07 11:52:00,
2013-03-07 06:07:00,14.3,12.0,30.40,SE,133,0.0,-999.0,89,-99.99,,,0.00,weatherlink.com 1.10,2013-03-07 12:07:00,
2013-03-07 06:37:00,13.8,11.0,30.41,SE,133,0.0,-999.0,90,-99.99,,,0.00,weatherlink.com 1.10,2013-03-07 12:37:00,
2013-03-07 06:53:00,13.7,11.0,30.42,SE,133,0.0,-999.0,90,-99.99,,,0.00,weatherlink.com 1.10,2013-03-07 12:53:00,
2013-03-07 07:08:00,14.0,12.0,30.43,SE,133,0.0,-999.0,91,-99.99,,,0.00,weatherlink.com 1.10,2013-03-07 13:08:00,
2013-03-07 07:23:00,14.7,13.0,30.43,SE,133,0.0,-999.0,92,-99.99,,,0.00,weatherlink.com 1.10,2013-03-07 13:23:00,
2013-03-07 07:38:00,15.7,14.0,30.44,SE,133,0.0,-999.0,91,-99.99,,,0.00,weatherlink.com 1.10,2013-03-07 13:38:00,
2013-03-07 07:53:00,17.1,15.0,30.44,SE,133,0.0,-999.0,91,-99.99,,,0.00,weatherlink.com 1.10,2013-03-07 13:53:00,
2013-03-07 08:08:00,18.7,16.0,30.45,SE,139,0.0,-999.0,88,-99.99,,,0.00,weatherlink.com 1.10,2013-03-07 14:08:00,
2013-03-07 08:23:00,19.5,16.0,30.44,SE,139,1.0,-999.0,86,-99.99,,,0.00,weatherlink.com 1.10,2013-03-07 14:23:00,
2013-03-07 08:38:00,20.6,17.0,30.45,East,87,0.0,-999.0,84,-99.99,,,0.00,weatherlink.com 1.10,2013-03-07 14:38:00,
2013-03-07 08:53:00,21.5,17.0,30.45,SE,126,1.0,-999.0,82,-99.99,,,0.00,weatherlink.com 1.10,2013-03-07 14:53:00,
2013-03-07 09:08:00,22.0,16.0,30.45,SSE,147,1.0,-999.0,79,-99.99,,,0.00,weatherlink.com 1.10,2013-03-07 15:08:00,
2013-03-07 09:23:00,22.8,17.0,30.45,SSW,210,0.0,-999.0,79,-99.99,,,0.00,weatherlink.com 1.10,2013-03-07 15:23:00,
2013-03-07 09:38:00,23.8,18.0,30.44,East,96,0.0,-999.0,77,-99.99,,,0.00,weatherlink.com 1.10,2013-03-07 15:38:00,
2013-03-07 09:53:00,24.9,19.0,30.44,WSW,255,2.0,-999.0,77,-99.99,,,0.00,weatherlink.com 1.10,2013-03-07 15:53:00,
2013-03-07 10:08:00,25.3,19.0,30.44,NNW,336,0.0,-999.0,76,-99.99,,,0.00,weatherlink.com 1.10,2013-03-07 16:08:00,
2013-03-07 10:23:00,26.2,20.0,30.44,WNW,298,0.0,-999.0,76,-99.99,,,0.00,weatherlink.com 1.10,2013-03-07 16:23:00,
2013-03-07 10:38:00,27.6,20.0,30.44,North,1,0.0,-999.0,72,-99.99,,,0.00,weatherlink.com 1.10,2013-03-07 16:38:00,
2013-03-07 10:53:00,28.8,20.0,30.45,NNW,347,0.0,-999.0,70,-99.99,,,0.00,weatherlink.com 1.10,2013-03-07 16:53:00,
2013-03-07 11:23:00,31.5,21.0,30.45,North,5,0.0,-999.0,66,-99.99,,,0.00,weatherlink.com 1.10,2013-03-07 17:23:00,
2013-03-07 11:38:00,32.3,21.0,30.45,NNW,341,1.0,-999.0,63,-99.99,,,0.00,weatherlink.com 1.10,2013-03-07 17:38:00,
2013-03-07 11:53:00,31.9,21.0,30.44,NNW,347,1.0,-999.0,65,-99.99,,,0.00,weatherlink.com 1.10,2013-03-07 17:53:00,
2013-03-07 12:08:00,33.7,23.0,30.44,NNW,340,0.0,-999.0,66,-99.99,,,0.00,weatherlink.com 1.10,2013-03-07 18:08:00,
2013-03-07 12:23:00,34.6,23.0,30.43,SE,130,1.0,-999.0,63,-99.99,,,0.00,weatherlink.com 1.10,2013-03-07 18:23:00,
2013-03-07 12:38:00,34.8,23.0,30.43,ESE,102,0.0,-999.0,62,-99.99,,,0.01,weatherlink.com 1.10,2013-03-07 18:38:00,
2013-03-07 12:53:00,35.3,23.0,30.43,North,357,1.0,-999.0,60,-99.99,,,0.01,weatherlink.com 1.10,2013-03-07 18:53:00,
2013-03-07 13:08:00,35.9,23.0,30.42,ENE,62,1.0,-999.0,60,-99.99,,,0.03,weatherlink.com 1.10,2013-03-07 19:08:00,
2013-03-07 13:23:00,36.3,23.0,30.42,NNW,336,0.0,-999.0,59,-99.99,,,0.03,weatherlink.com 1.10,2013-03-07 19:23:00,
2013-03-07 13:38:00,36.5,23.0,30.42,NNW,346,2.0,-999.0,58,-99.99,,,0.04,weatherlink.com 1.10,2013-03-07 19:38:00,
2013-03-07 13:53:00,36.1,22.0,30.42,NNW,336,2.0,-999.0,58,-99.99,,,0.05,weatherlink.com 1.10,2013-03-07 19:53:00,
2013-03-07 14:08:00,35.5,22.0,30.42,NNW,343,2.0,-999.0,59,-99.99,,,0.06,weatherlink.com 1.10,2013-03-07 20:08:00,
2013-03-07 14:23:00,35.3,23.0,30.42,NNW,334,2.0,-999.0,60,-99.99,,,0.06,weatherlink.com 1.10,2013-03-07 20:23:00,
2013-03-07 14:38:00,35.7,23.0,30.42,SW,215,0.0,-999.0,60,-99.99,,,0.07,weatherlink.com 1.10,2013-03-07 20:38:00,
2013-03-07 14:53:00,36.8,23.0,30.43,SSW,202,0.0,-999.0,58,-99.99,,,0.07,weatherlink.com 1.10,2013-03-07 20:53:00,
2013-03-07 15:08:00,35.9,23.0,30.42,South,190,0.0,-999.0,60,-99.99,,,0.07,weatherlink.com 1.10,2013-03-07 21:08:00,
2013-03-07 15:23:00,35.2,22.0,30.41,NNW,334,0.0,-999.0,58,-99.99,,,0.08,weatherlink.com 1.10,2013-03-07 21:23:00,
2013-03-07 15:38:00,34.7,22.0,30.41,West,262,0.0,-999.0,61,-99.99,,,0.08,weatherlink.com 1.10,2013-03-07 21:38:00,
2013-03-07 15:53:00,34.2,23.0,30.41,WNW,288,1.0,-999.0,63,-99.99,,,0.08,weatherlink.com 1.10,2013-03-07 21:53:00,
2013-03-07 16:08:00,33.9,23.0,30.41,SW,216,0.0,-999.0,65,-99.99,,,0.09,weatherlink.com 1.10,2013-03-07 22:08:00,
2013-03-07 16:23:00,33.7,23.0,30.41,SW,224,1.0,-999.0,65,-99.99,,,0.09,weatherlink.com 1.10,2013-03-07 22:23:00,
2013-03-07 16:38:00,32.8,23.0,30.42,WSW,253,1.0,-999.0,66,-99.99,,,0.09,weatherlink.com 1.10,2013-03-07 22:38:00,
2013-03-07 16:53:00,32.2,22.0,30.42,SW,215,1.0,-999.0,67,-99.99,,,0.09,weatherlink.com 1.10,2013-03-07 22:53:00,
2013-03-07 17:08:00,31.8,22.0,30.42,SSW,207,0.0,-999.0,67,-99.99,,,0.09,weatherlink.com 1.10,2013-03-07 23:08:00,
2013-03-07 17:23:00,31.4,22.0,30.42,SW,222,0.0,-999.0,69,-99.99,,,0.09,weatherlink.com 1.10,2013-03-07 23:23:00,
2013-03-07 17:38:00,30.8,22.0,30.43,SW,222,0.0,-999.0,70,-99.99,,,0.09,weatherlink.com 1.10,2013-03-07 23:38:00,
2013-03-07 17:53:00,30.1,21.0,30.43,SW,222,1.0,-999.0,70,-99.99,,,0.09,weatherlink.com 1.10,2013-03-07 23:53:00,
2013-03-07 18:08:00,29.4,21.0,30.43,SW,225,0.0,-999.0,71,-99.99,,,0.09,weatherlink.com 1.10,2013-03-08 00:08:00,
2013-03-07 18:39:00,28.3,21.0,30.43,SW,225,0.0,-999.0,73,-99.99,,,0.09,weatherlink.com 1.10,2013-03-08 00:39:00,
2013-03-07 19:24:00,27.4,20.0,30.44,SW,225,0.0,-999.0,75,-99.99,,,0.09,weatherlink.com 1.10,2013-03-08 01:24:00,
2013-03-07 19:39:00,27.1,20.0,30.44,SW,225,0.0,-999.0,76,-99.99,,,0.09,weatherlink.com 1.10,2013-03-08 01:39:00,
2013-03-07 19:54:00,26.7,20.0,30.45,SW,225,0.0,-999.0,77,-99.99,,,0.09,weatherlink.com 1.10,2013-03-08 01:54:00,
2013-03-07 20:09:00,26.4,21.0,30.45,SW,225,0.0,-999.0,79,-99.99,,,0.09,weatherlink.com 1.10,2013-03-08 02:09:00,
2013-03-07 20:24:00,26.1,20.0,30.45,SW,225,0.0,-999.0,79,-99.99,,,0.09,weatherlink.com 1.10,2013-03-08 02:24:00,
2013-03-07 20:39:00,25.6,20.0,30.45,SW,225,0.0,-999.0,79,-99.99,,,0.09,weatherlink.com 1.10,2013-03-08 02:39:00,
2013-03-07 20:54:00,25.1,20.0,30.45,SW,225,0.0,-999.0,82,-99.99,,,0.09,weatherlink.com 1.10,2013-03-08 02:54:00,
2013-03-07 21:09:00,24.7,20.0,30.45,SW,225,0.0,-999.0,82,-99.99,,,0.09,weatherlink.com 1.10,2013-03-08 03:09:00,
2013-03-07 21:24:00,24.3,20.0,30.45,SW,225,0.0,-999.0,83,-99.99,,,0.09,weatherlink.com 1.10,2013-03-08 03:24:00,
2013-03-07 21:39:00,23.9,20.0,30.45,SW,225,0.0,-999.0,84,-99.99,,,0.09,weatherlink.com 1.10,2013-03-08 03:39:00,
2013-03-07 21:54:00,23.4,19.0,30.45,SW,225,0.0,-999.0,84,-99.99,,,0.09,weatherlink.com 1.10,2013-03-08 03:54:00,
2013-03-07 22:09:00,22.8,19.0,30.45,SW,225,0.0,-999.0,84,-99.99,,,0.09,weatherlink.com 1.10,2013-03-08 04:09:00,
2013-03-07 22:24:00,22.5,19.0,30.45,SW,225,0.0,-999.0,85,-99.99,,,0.09,weatherlink.com 1.10,2013-03-08 04:24:00,
2013-03-07 22:39:00,22.1,18.0,30.45,SW,225,0.0,-999.0,85,-99.99,,,0.09,weatherlink.com 1.10,2013-03-08 04:39:00,
2013-03-07 22:54:00,22.0,18.0,30.45,SW,225,0.0,-999.0,85,-99.99,,,0.09,weatherlink.com 1.10,2013-03-08 04:54:00,
2013-03-07 23:09:00,22.6,19.0,30.44,WSW,240,1.0,-999.0,84,-99.99,,,0.09,weatherlink.com 1.10,2013-03-08 05:09:00,
2013-03-07 23:24:00,23.1,19.0,30.44,WSW,248,1.0,-999.0,83,-99.99,,,0.09,weatherlink.com 1.10,2013-03-08 05:24:00,
2013-03-07 23:39:00,23.5,20.0,30.44,SW,230,1.0,-999.0,85,-99.99,,,0.09,weatherlink.com 1.10,2013-03-08 05:39:00,
2013-03-07 23:54:00,23.5,20.0,30.45,WSW,247,1.0,-999.0,85,-99.99,,,0.09,weatherlink.com 1.10,2013-03-08 05:54:00,